createdAt,value
2022-11-10T00:05:00.080Z,100385.31
2022-11-10T00:10:28.673Z,100386.88
2022-11-10T00:16:11.835Z,100391.59
2022-11-10T00:21:40.737Z,100392.31
2022-11-10T00:27:05.528Z,100398.97
2022-11-10T00:32:33.665Z,100413.06
2022-11-10T00:37:56.923Z,100416.69
2022-11-10T00:43:26.225Z,100421.84
2022-11-10T00:49:14.325Z,100425.84
2022-11-10T00:54:43.241Z,100446.00
2022-11-10T01:00:10.532Z,100444.25
2022-11-10T01:05:43.919Z,100450.19
2022-11-10T01:11:09.805Z,100456.78
2022-11-10T01:16:36.652Z,100460.38
2022-11-10T01:22:09.835Z,100471.25
2022-11-10T01:27:41.248Z,100474.28
2022-11-10T01:33:10.524Z,100477.19
2022-11-10T01:38:36.840Z,100485.06
2022-11-10T01:44:18.488Z,100485.34
2022-11-10T01:49:43.753Z,100493.75
2022-11-10T01:55:23.837Z,100495.44
2022-11-10T02:00:50.596Z,100503.81
2022-11-10T02:06:15.414Z,100511.38
2022-11-10T02:11:42.950Z,100517.88
2022-11-10T02:17:07.273Z,100521.72
2022-11-10T02:22:32.729Z,100509.97
2022-11-10T02:28:00.133Z,100537.84
2022-11-10T02:33:24.961Z,100527.63
2022-11-10T02:38:54.606Z,100528.88
2022-11-10T02:44:18.603Z,100534.63
2022-11-10T02:50:01.124Z,100534.22
2022-11-10T02:55:29.796Z,100546.88
2022-11-10T03:00:56.493Z,100552.25
2022-11-10T03:06:25.343Z,100555.25
2022-11-10T03:12:00.895Z,100566.00
2022-11-10T03:17:24.463Z,100563.91
2022-11-10T03:22:59.624Z,100582.63
2022-11-10T03:28:31.351Z,100584.81
2022-11-10T03:33:58.527Z,100593.75
2022-11-10T03:39:27.640Z,100601.06
2022-11-10T03:44:56.712Z,100606.53
2022-11-10T03:50:33.453Z,100617.41
2022-11-10T03:55:56.686Z,100628.53
2022-11-10T04:01:32.944Z,100633.28
2022-11-10T04:07:18.310Z,100641.56
2022-11-10T04:12:59.349Z,100651.44
2022-11-10T04:18:27.251Z,100665.34
2022-11-10T04:23:58.819Z,100670.22
2022-11-10T04:29:23.638Z,100678.06
2022-11-10T04:34:49.622Z,100697.03
2022-11-10T04:40:14.983Z,100695.13
2022-11-10T04:45:38.865Z,100702.50
2022-11-10T04:51:13.349Z,100705.50
2022-11-10T04:56:36.793Z,100706.81
2022-11-10T05:02:01.911Z,100712.41
2022-11-10T05:07:27.932Z,100720.75
2022-11-10T05:12:53.251Z,100727.06
2022-11-10T05:18:21.531Z,100737.78
2022-11-10T05:23:49.264Z,100735.50
2022-11-10T05:29:19.069Z,100735.03
2022-11-10T05:34:58.168Z,100738.88
2022-11-10T05:46:13.755Z,100777.50
2022-11-10T05:51:39.281Z,100784.63
2022-11-10T05:57:18.699Z,100794.13
2022-11-10T06:02:54.547Z,100811.03
2022-11-10T06:08:21.413Z,100828.63
2022-11-10T06:13:57.357Z,100838.91
2022-11-10T06:19:37.971Z,100849.50
2022-11-10T06:31:02.169Z,100871.38
2022-11-10T06:36:27.602Z,100887.91
2022-11-10T06:42:00.071Z,100910.28
2022-11-10T06:47:46.529Z,100913.72
2022-11-10T06:53:14.137Z,100924.63
2022-11-10T06:58:39.168Z,100938.81
2022-11-10T07:04:20.340Z,100948.53
2022-11-10T07:09:49.914Z,100944.22
2022-11-10T07:15:24.397Z,100964.00
2022-11-10T07:20:52.818Z,100977.59
2022-11-10T07:26:27.721Z,100979.72
2022-11-10T07:31:56.635Z,100990.56
2022-11-10T07:37:22.262Z,101000.38
2022-11-10T07:42:48.529Z,101004.69
2022-11-10T07:48:14.900Z,101010.69
2022-11-10T07:53:42.972Z,101019.88
2022-11-10T07:59:07.323Z,101033.25
2022-11-10T08:04:47.469Z,101050.16
2022-11-10T08:10:16.993Z,101052.06
2022-11-10T08:15:40.319Z,101049.03
2022-11-10T08:21:06.016Z,101074.47
2022-11-10T08:26:32.108Z,101076.69
2022-11-10T08:32:14.565Z,101095.16
2022-11-10T08:37:42.558Z,101108.56
2022-11-10T08:43:12.426Z,101102.50
2022-11-10T08:48:39.003Z,101104.53
2022-11-10T08:54:10.599Z,101114.63
2022-11-10T08:59:35.954Z,101120.31
2022-11-10T09:04:59.919Z,101129.47
2022-11-10T09:10:24.744Z,101127.16
2022-11-10T09:15:53.830Z,101140.72
2022-11-10T09:21:19.695Z,101146.84
2022-11-10T09:26:45.698Z,101146.19
2022-11-10T09:32:15.636Z,101160.94
2022-11-10T09:37:42.453Z,101163.91
2022-11-10T09:43:12.409Z,101171.56
2022-11-10T09:48:48.342Z,101173.75
2022-11-10T09:54:26.802Z,101161.38
2022-11-10T10:00:01.132Z,101152.25
2022-11-10T10:05:54.186Z,101165.41
2022-11-10T10:11:30.062Z,101168.19
2022-11-10T10:17:04.334Z,101171.25
2022-11-10T10:22:58.270Z,101165.97
2022-11-10T10:28:33.265Z,101165.97
2022-11-10T10:34:00.172Z,101168.19
2022-11-10T10:39:31.921Z,101172.78
2022-11-10T10:45:31.483Z,101177.50
2022-11-10T10:50:53.878Z,101178.88
2022-11-10T10:56:28.457Z,101172.09
2022-11-10T11:01:57.122Z,101169.03
2022-11-10T11:07:28.458Z,101179.72
2022-11-10T11:12:56.834Z,101184.72
2022-11-10T11:18:36.157Z,101184.16
2022-11-10T11:24:21.639Z,101187.59
2022-11-10T11:30:03.677Z,101193.41
2022-11-10T11:35:55.763Z,101187.50
2022-11-10T11:41:42.662Z,101188.31
2022-11-10T11:47:20.826Z,101195.22
2022-11-10T11:52:56.939Z,101203.06
2022-11-10T11:58:35.893Z,101202.22
2022-11-10T12:04:38.083Z,101208.56
2022-11-10T12:10:27.543Z,101209.84
2022-11-10T12:15:59.399Z,101207.31
2022-11-10T12:21:37.402Z,101221.00
2022-11-10T12:27:20.170Z,101213.34
2022-11-10T12:32:48.891Z,101222.53
2022-11-10T12:38:21.806Z,101231.88
2022-11-10T12:44:06.132Z,101225.66
2022-11-10T12:49:34.972Z,101225.16
2022-11-10T12:55:01.230Z,101234.06
2022-11-10T13:00:31.227Z,101236.03
2022-11-10T13:06:09.456Z,101238.94
2022-11-10T13:11:40.876Z,101236.75
2022-11-10T13:17:42.524Z,101251.50
2022-11-10T13:29:32.183Z,101263.59
2022-11-10T13:35:19.437Z,101262.19
2022-11-10T13:40:59.093Z,101271.91
2022-11-10T13:46:23.515Z,101267.72
2022-11-10T13:51:57.233Z,101265.66
2022-11-10T13:57:30.047Z,101270.94
2022-11-10T14:03:01.444Z,101289.22
2022-11-10T14:08:46.687Z,101300.34
2022-11-10T14:14:20.444Z,101302.56
2022-11-10T14:19:46.758Z,101312.38
2022-11-10T14:25:24.764Z,101318.88
2022-11-10T14:30:58.440Z,101325.94
2022-11-10T14:36:23.963Z,101330.91
2022-11-10T14:41:53.573Z,101340.19
2022-11-10T14:47:34.111Z,101335.56
2022-11-10T14:53:03.094Z,101342.59
2022-11-10T14:58:30.367Z,101354.47
2022-11-10T15:03:54.518Z,101363.16
2022-11-10T15:09:28.158Z,101377.06
2022-11-10T15:15:04.545Z,101375.22
2022-11-10T15:20:45.536Z,101380.81
2022-11-10T15:26:31.563Z,101376.69
2022-11-10T15:31:59.966Z,101375.22
2022-11-10T15:37:31.229Z,101389.69
2022-11-10T15:42:43.800Z,101402.06
2022-11-10T15:48:15.253Z,101399.19
2022-11-10T15:53:25.159Z,101407.00
2022-11-10T15:58:36.108Z,101415.56
2022-11-10T16:03:59.612Z,101430.69
2022-11-10T16:09:33.710Z,101434.97
2022-11-10T16:14:47.195Z,101441.19
2022-11-10T16:20:15.985Z,101436.66
2022-11-10T16:25:27.727Z,101444.50
2022-11-10T16:30:32.721Z,101439.84
2022-11-10T16:35:39.599Z,101441.28
2022-11-10T16:40:49.258Z,101455.81
2022-11-10T16:46:02.657Z,101454.53
2022-11-10T16:51:13.621Z,101449.84
2022-11-10T16:56:21.985Z,101451.25
2022-11-10T17:01:41.043Z,101458.72
2022-11-10T17:06:52.381Z,101478.44
2022-11-10T17:12:05.404Z,101470.28
2022-11-10T17:17:20.441Z,101478.38
2022-11-10T17:22:36.419Z,101503.00
2022-11-10T17:27:41.324Z,101494.75
2022-11-10T17:33:05.829Z,101495.34
2022-11-10T17:38:26.948Z,101495.03
2022-11-10T17:43:35.190Z,101483.53
2022-11-10T17:48:42.161Z,101501.53
2022-11-10T17:53:54.058Z,101511.59
2022-11-10T17:59:01.680Z,101530.50
2022-11-10T18:04:15.687Z,101529.06
2022-11-10T18:09:32.175Z,101540.69
2022-11-10T18:14:39.914Z,101535.03
2022-11-10T18:19:47.384Z,101537.34
2022-11-10T18:24:53.844Z,101556.00
2022-11-10T18:30:02.811Z,101545.03
2022-11-10T18:35:08.453Z,101547.13
2022-11-10T18:40:20.347Z,101541.25
2022-11-10T18:45:28.616Z,101530.34
2022-11-10T18:50:34.200Z,101543.66
2022-11-10T18:55:45.809Z,101534.44
2022-11-10T19:00:52.926Z,101546.91
2022-11-10T19:06:08.010Z,101542.91
2022-11-10T19:11:20.449Z,101545.00
2022-11-10T19:16:26.306Z,101554.09
2022-11-10T19:21:50.437Z,101562.28
2022-11-10T19:27:08.829Z,101570.50
2022-11-10T19:32:15.202Z,101565.69
2022-11-10T19:37:23.603Z,101573.03
2022-11-10T19:42:38.153Z,101583.66
2022-11-10T19:47:43.729Z,101589.22
2022-11-10T19:52:50.829Z,101600.09
2022-11-10T19:58:15.457Z,101603.63
2022-11-10T20:03:31.038Z,101610.22
2022-11-10T20:08:39.124Z,101612.19
2022-11-10T20:13:54.403Z,101606.41
2022-11-10T20:19:19.660Z,101618.84
2022-11-10T20:24:31.003Z,101617.25
2022-11-10T20:29:41.047Z,101616.63
2022-11-10T20:34:49.800Z,101616.91
2022-11-10T20:40:37.561Z,101610.00
2022-11-10T20:45:40.556Z,101611.16
2022-11-10T20:50:47.607Z,101621.91
2022-11-10T20:56:06.873Z,101624.78
2022-11-10T21:01:18.980Z,101625.84
2022-11-10T21:06:25.846Z,101621.72
2022-11-10T21:11:47.421Z,101614.19
2022-11-10T21:16:58.272Z,101612.66
2022-11-10T21:22:07.365Z,101621.66
2022-11-10T21:27:15.626Z,101616.34
2022-11-10T21:32:38.141Z,101627.91
2022-11-10T21:37:51.509Z,101631.66
2022-11-10T21:43:04.666Z,101636.31
2022-11-10T21:48:25.576Z,101650.41
2022-11-10T21:53:36.589Z,101656.84
2022-11-10T21:58:43.596Z,101670.97
2022-11-10T22:03:50.655Z,101668.53
2022-11-10T22:09:02.437Z,101660.97
2022-11-10T22:14:32.690Z,101658.53
2022-11-10T22:19:39.238Z,101650.13
2022-11-10T22:25:01.871Z,101646.94
2022-11-10T22:30:14.664Z,101643.59
2022-11-10T22:35:39.783Z,101661.97
2022-11-10T22:41:08.167Z,101663.00
2022-11-10T22:46:16.884Z,101667.63
2022-11-10T22:51:24.551Z,101656.38
2022-11-10T22:56:49.010Z,101660.66
2022-11-10T23:01:58.134Z,101655.81
2022-11-10T23:07:18.334Z,101658.41
2022-11-10T23:12:33.872Z,101664.66
2022-11-10T23:17:44.942Z,101660.34
2022-11-10T23:22:53.660Z,101669.81
2022-11-10T23:27:58.996Z,101675.78
2022-11-10T23:33:05.289Z,101684.44
2022-11-10T23:38:16.369Z,101694.06
2022-11-10T23:43:37.435Z,101703.75
2022-11-10T23:48:54.208Z,101709.06
2022-11-10T23:54:05.871Z,101715.03
2022-11-10T23:59:10.608Z,101715.97
